Time;durP1;ratioP1;P1;durP2;ratioP2;P2;SDS_P1;SDS_P2;PMS_P1;PMS_P2;Temp;Humidity;BMP_temperature;BMP_pressure;BME280_temperature;BME280_humidity;BME280_pressure;Samples;Min_cycle;Max_cycle;Signal;HPM_P1;HPM_P2
2021/08/02 00:01:29;;;;;;;1.63;1.25;;;;;;;;;;6301628;22;20178;-47
2021/08/02 00:04:04;;;;;;;2.38;1.15;;;;;;;;;;6301379;22;19999;-47
2021/08/02 00:06:35;;;;;;;1.80;1.20;;;;;;;;;;6301433;22;19996;-49
2021/08/02 00:09:00;;;;;;;1.02;0.77;;;;;;;;;;6301808;22;20000;-50
2021/08/02 00:11:31;;;;;;;3.15;1.67;;;;;;;;;;6302493;22;19999;-48
2021/08/02 00:13:58;;;;;;;2.28;1.65;;;;;;;;;;6303297;22;19999;-49
2021/08/02 00:16:23;;;;;;;3.47;1.70;;;;;;;;;;6303389;22;20078;-46
2021/08/02 00:18:48;;;;;;;3.50;1.65;;;;;;;;;;6303073;22;20088;-47
2021/08/02 00:21:14;;;;;;;1.83;1.02;;;;;;;;;;6303745;22;20006;-48
2021/08/02 00:23:40;;;;;;;3.08;1.20;;;;;;;;;;6303609;22;19996;-44
2021/08/02 00:26:06;;;;;;;1.25;0.85;;;;;;;;;;6303147;22;20002;-45
2021/08/02 00:28:32;;;;;;;1.30;0.68;;;;;;;;;;6303098;22;20031;-45
2021/08/02 00:30:58;;;;;;;1.95;1.42;;;;;;;;;;6303537;22;19995;-47
2021/08/02 00:33:23;;;;;;;2.65;1.48;;;;;;;;;;6303354;22;19995;-46
2021/08/02 00:35:56;;;;;;;1.08;0.68;;;;;;;;;;6303417;22;20078;-45
2021/08/02 00:38:28;;;;;;;2.08;1.02;;;;;;;;;;6303667;22;20038;-48
2021/08/02 00:41:08;;;;;;;1.45;1.05;;;;;;;;;;6303349;22;20004;-47
2021/08/02 00:43:39;;;;;;;1.65;0.82;;;;;;;;;;6303272;22;20480;-45
2021/08/02 00:46:05;;;;;;;2.60;0.68;;;;;;;;;;6302881;22;20428;-46
2021/08/02 00:48:36;;;;;;;2.22;1.08;;;;;;;;;;6303269;22;20021;-48
2021/08/02 00:51:02;;;;;;;2.03;0.95;;;;;;;;;;6303586;22;20050;-46
2021/08/02 00:53:28;;;;;;;1.23;0.70;;;;;;;;;;6303064;22;19988;-46
2021/08/02 00:55:55;;;;;;;1.63;1.02;;;;;;;;;;6302980;22;20030;-46
2021/08/02 00:58:22;;;;;;;1.98;1.13;;;;;;;;;;6303378;22;20019;-46
2021/08/02 01:00:48;;;;;;;1.25;0.52;;;;;;;;;;6302823;22;20063;-46
2021/08/02 01:03:16;;;;;;;1.55;0.98;;;;;;;;;;6303707;22;20019;-47
2021/08/02 01:05:42;;;;;;;3.45;0.82;;;;;;;;;;6302921;22;20031;-45
2021/08/02 01:08:10;;;;;;;5.78;1.52;;;;;;;;;;6302953;22;19991;-45
2021/08/02 01:10:36;;;;;;;1.00;0.70;;;;;;;;;;6303087;22;20045;-47
2021/08/02 01:13:03;;;;;;;2.45;0.80;;;;;;;;;;6302818;22;19999;-47
2021/08/02 01:15:28;;;;;;;7.72;1.38;;;;;;;;;;6303285;22;20360;-58
2021/08/02 01:17:55;;;;;;;2.00;1.38;;;;;;;;;;6303357;22;20018;-58
2021/08/02 01:20:20;;;;;;;6.13;1.35;;;;;;;;;;6302692;22;20011;-58
2021/08/02 01:22:46;;;;;;;3.13;1.35;;;;;;;;;;6302630;22;20125;-58
2021/08/02 01:25:30;;;;;;;2.45;0.88;;;;;;;;;;6302486;22;20433;-58
2021/08/02 01:28:14;;;;;;;1.73;0.65;;;;;;;;;;6302608;22;19991;-59
2021/08/02 01:30:46;;;;;;;1.42;0.77;;;;;;;;;;6302636;22;20002;-58
2021/08/02 01:33:12;;;;;;;3.00;0.93;;;;;;;;;;6302467;22;19987;-58
2021/08/02 01:35:39;;;;;;;2.63;1.60;;;;;;;;;;6303104;22;20433;-57
2021/08/02 01:38:04;;;;;;;2.33;1.23;;;;;;;;;;6302687;22;20057;-59
2021/08/02 01:40:30;;;;;;;3.60;1.20;;;;;;;;;;6303009;22;20003;-58
2021/08/02 01:42:57;;;;;;;3.60;1.17;;;;;;;;;;6303105;22;19995;-58
2021/08/02 01:45:23;;;;;;;2.58;1.00;;;;;;;;;;6303022;22;20491;-58
2021/08/02 01:48:07;;;;;;;4.22;1.48;;;;;;;;;;6302403;22;19999;-58
2021/08/02 01:50:34;;;;;;;3.35;1.40;;;;;;;;;;6302514;22;20074;-58
2021/08/02 01:53:12;;;;;;;2.42;1.20;;;;;;;;;;6302614;22;20462;-58
2021/08/02 01:55:38;;;;;;;3.17;1.48;;;;;;;;;;6302877;22;20018;-58
2021/08/02 01:58:06;;;;;;;1.63;0.75;;;;;;;;;;6302196;22;20086;-58
2021/08/02 02:00:33;;;;;;;2.35;1.30;;;;;;;;;;6302469;22;20483;-58
2021/08/02 02:03:06;;;;;;;5.60;1.85;;;;;;;;;;6302347;22;20052;-58
2021/08/02 02:05:34;;;;;;;5.07;1.50;;;;;;;;;;6302471;22;20029;-58
2021/08/02 02:08:05;;;;;;;1.60;0.88;;;;;;;;;;6302311;22;20436;-58
2021/08/02 02:10:38;;;;;;;3.85;1.73;;;;;;;;;;6302475;22;20066;-59
2021/08/02 02:13:05;;;;;;;6.05;1.58;;;;;;;;;;6301973;22;20002;-58
2021/08/02 02:15:31;;;;;;;1.13;0.73;;;;;;;;;;6302686;22;20052;-57
2021/08/02 02:17:57;;;;;;;2.33;1.00;;;;;;;;;;6302950;22;20022;-57
2021/08/02 02:20:22;;;;;;;1.55;0.93;;;;;;;;;;6302315;22;20042;-58
2021/08/02 02:22:48;;;;;;;0.80;0.40;;;;;;;;;;6302757;22;20554;-58
2021/08/02 02:25:13;;;;;;;2.90;1.20;;;;;;;;;;6302436;22;20568;-58
2021/08/02 02:27:39;;;;;;;2.00;0.98;;;;;;;;;;6301943;22;20420;-57
2021/08/02 02:30:06;;;;;;;2.42;0.93;;;;;;;;;;6302253;22;19998;-58
2021/08/02 02:32:32;;;;;;;3.40;1.10;;;;;;;;;;6302583;22;20087;-58
2021/08/02 02:34:58;;;;;;;1.67;0.60;;;;;;;;;;6302371;22;19995;-57
2021/08/02 02:37:24;;;;;;;0.95;0.70;;;;;;;;;;6302503;22;19999;-58
2021/08/02 02:39:51;;;;;;;4.47;1.73;;;;;;;;;;6302252;22;20393;-58
2021/08/02 02:42:16;;;;;;;2.45;1.73;;;;;;;;;;6302224;22;20685;-58
2021/08/02 02:44:42;;;;;;;0.82;0.55;;;;;;;;;;6302345;22;20003;-58
2021/08/02 02:47:07;;;;;;;2.50;1.38;;;;;;;;;;6301646;22;20006;-57
2021/08/02 02:49:33;;;;;;;2.58;1.15;;;;;;;;;;6300711;22;19995;-58
2021/08/02 02:52:00;;;;;;;4.55;1.67;;;;;;;;;;6302360;22;19999;-58
2021/08/02 02:54:26;;;;;;;2.00;0.90;;;;;;;;;;6302401;22;20003;-58
2021/08/02 02:56:53;;;;;;;3.20;1.58;;;;;;;;;;6302188;22;20006;-59
2021/08/02 02:59:18;;;;;;;1.83;1.13;;;;;;;;;;6302035;22;19999;-58
2021/08/02 03:01:45;;;;;;;5.15;1.27;;;;;;;;;;6302368;22;20085;-57
2021/08/02 03:04:10;;;;;;;2.75;1.10;;;;;;;;;;6301874;22;20097;-58
2021/08/02 03:06:36;;;;;;;2.78;1.10;;;;;;;;;;6301859;22;20026;-58
2021/08/02 03:09:03;;;;;;;1.48;0.88;;;;;;;;;;6301877;22;19996;-56
2021/08/02 03:11:28;;;;;;;1.70;0.93;;;;;;;;;;6301983;22;20487;-57
2021/08/02 03:13:54;;;;;;;2.30;1.05;;;;;;;;;;6302301;22;20014;-56
2021/08/02 03:16:20;;;;;;;4.00;2.03;;;;;;;;;;6302096;22;19999;-56
2021/08/02 03:18:45;;;;;;;1.65;1.10;;;;;;;;;;6301801;22;20003;-56
2021/08/02 03:21:12;;;;;;;3.20;1.15;;;;;;;;;;6302072;22;20007;-57
2021/08/02 03:23:42;;;;;;;3.33;1.42;;;;;;;;;;6301960;22;20421;-57
2021/08/02 03:26:22;;;;;;;3.15;1.13;;;;;;;;;;6301895;22;20004;-57
2021/08/02 03:28:58;;;;;;;1.55;1.00;;;;;;;;;;6301778;22;20429;-57
2021/08/02 03:31:36;;;;;;;3.42;1.63;;;;;;;;;;6302214;22;20018;-57
2021/08/02 03:34:04;;;;;;;2.53;0.88;;;;;;;;;;6301906;22;20067;-57
2021/08/02 03:36:29;;;;;;;5.38;2.80;;;;;;;;;;6301952;22;20428;-57
2021/08/02 03:38:56;;;;;;;2.03;1.02;;;;;;;;;;6301991;22;20007;-57
2021/08/02 03:41:21;;;;;;;3.95;1.42;;;;;;;;;;6301854;22;20114;-57
2021/08/02 03:43:48;;;;;;;1.48;0.90;;;;;;;;;;6301908;22;20031;-57
2021/08/02 03:46:14;;;;;;;3.88;1.60;;;;;;;;;;6301661;22;20006;-58
2021/08/02 03:48:40;;;;;;;1.80;1.13;;;;;;;;;;6304069;22;19995;-58
2021/08/02 03:51:05;;;;;;;3.00;1.73;;;;;;;;;;6303824;22;19999;-58
2021/08/02 03:53:40;;;;;;;2.05;0.95;;;;;;;;;;6304105;22;20117;-58
2021/08/02 03:56:07;;;;;;;1.80;1.02;;;;;;;;;;6304075;22;20068;-57
2021/08/02 03:58:32;;;;;;;3.97;1.02;;;;;;;;;;6303771;22;20010;-57
2021/08/02 04:00:57;;;;;;;3.03;1.33;;;;;;;;;;6303691;22;20074;-58
2021/08/02 04:03:23;;;;;;;2.83;1.90;;;;;;;;;;6303655;22;19995;-58
2021/08/02 04:05:49;;;;;;;9.32;1.77;;;;;;;;;;6303623;22;20049;-58
2021/08/02 04:08:14;;;;;;;2.25;1.20;;;;;;;;;;6303488;22;20022;-58
2021/08/02 04:10:39;;;;;;;1.90;1.13;;;;;;;;;;6303536;22;20070;-58
2021/08/02 04:13:04;;;;;;;2.15;1.55;;;;;;;;;;6304126;22;20051;-58
2021/08/02 04:15:30;;;;;;;0.70;0.50;;;;;;;;;;6303554;22;20242;-58
2021/08/02 04:17:55;;;;;;;2.92;1.30;;;;;;;;;;6303588;22;19999;-58
2021/08/02 04:20:20;;;;;;;1.60;0.75;;;;;;;;;;6303405;22;20025;-58
2021/08/02 04:22:47;;;;;;;2.13;0.93;;;;;;;;;;6303738;22;20058;-58
2021/08/02 04:25:13;;;;;;;1.67;1.30;;;;;;;;;;6303831;22;20007;-58
2021/08/02 04:27:38;;;;;;;1.13;0.88;;;;;;;;;;6303651;22;20416;-58
2021/08/02 04:30:04;;;;;;;2.33;0.65;;;;;;;;;;6303372;22;20570;-58
2021/08/02 04:32:29;;;;;;;14.68;1.40;;;;;;;;;;6303683;22;20003;-57
2021/08/02 04:34:54;;;;;;;3.53;1.52;;;;;;;;;;6303363;22;20412;-58
2021/08/02 04:37:20;;;;;;;13.00;1.75;;;;;;;;;;6303783;22;20006;-58
2021/08/02 04:39:45;;;;;;;5.07;1.48;;;;;;;;;;6303160;22;20034;-57
2021/08/02 04:42:11;;;;;;;2.00;1.15;;;;;;;;;;6303205;22;19999;-58
2021/08/02 04:44:36;;;;;;;1.50;0.98;;;;;;;;;;6303708;22;20014;-58
2021/08/02 04:47:01;;;;;;;3.55;1.02;;;;;;;;;;6303584;22;20049;-58
2021/08/02 04:49:27;;;;;;;1.20;0.73;;;;;;;;;;6303763;22;20374;-58
2021/08/02 04:51:52;;;;;;;4.75;1.85;;;;;;;;;;6303645;22;20477;-56
2021/08/02 04:54:17;;;;;;;6.45;1.20;;;;;;;;;;6303659;22;19995;-55
2021/08/02 04:56:43;;;;;;;1.63;1.10;;;;;;;;;;6303560;22;20341;-55
2021/08/02 04:59:08;;;;;;;1.55;0.82;;;;;;;;;;6303522;22;20022;-55
2021/08/02 05:01:33;;;;;;;4.00;1.38;;;;;;;;;;6303364;22;19999;-55
2021/08/02 05:03:59;;;;;;;2.58;1.42;;;;;;;;;;6302939;22;20003;-56
2021/08/02 05:06:24;;;;;;;3.72;3.20;;;;;;;;;;6303040;22;19999;-56
2021/08/02 05:08:49;;;;;;;6.03;3.03;;;;;;;;;;6302877;22;20681;-55
2021/08/02 05:11:15;;;;;;;3.30;1.95;;;;;;;;;;6303282;22;20000;-55
2021/08/02 05:13:40;;;;;;;4.35;1.85;;;;;;;;;;6303045;22;19999;-55
2021/08/02 05:16:06;;;;;;;4.82;2.42;;;;;;;;;;6302711;22;19999;-55
2021/08/02 05:18:31;;;;;;;3.45;2.58;;;;;;;;;;6303418;22;19999;-54
2021/08/02 05:20:57;;;;;;;4.03;2.92;;;;;;;;;;6302832;22;20015;-55
2021/08/02 05:23:22;;;;;;;2.35;2.05;;;;;;;;;;6303008;22;19991;-55
2021/08/02 05:25:47;;;;;;;2.35;1.98;;;;;;;;;;6302567;22;20512;-55
2021/08/02 05:28:13;;;;;;;3.97;2.72;;;;;;;;;;6302167;22;20023;-58
2021/08/02 05:30:38;;;;;;;1.88;1.70;;;;;;;;;;6302861;22;19995;-58
2021/08/02 05:33:03;;;;;;;3.53;2.35;;;;;;;;;;6302622;22;19987;-57
2021/08/02 05:35:29;;;;;;;2.72;2.08;;;;;;;;;;6302940;22;20002;-57
2021/08/02 05:37:54;;;;;;;3.92;2.08;;;;;;;;;;6302609;22;19999;-56
2021/08/02 05:40:20;;;;;;;5.25;3.08;;;;;;;;;;6302813;22;20070;-57
2021/08/02 05:42:45;;;;;;;2.35;1.48;;;;;;;;;;6302933;22;20447;-57
2021/08/02 05:45:11;;;;;;;3.47;1.60;;;;;;;;;;6303045;22;20427;-57
2021/08/02 05:47:37;;;;;;;2.65;1.67;;;;;;;;;;6303003;22;20007;-56
2021/08/02 05:50:03;;;;;;;3.42;1.88;;;;;;;;;;6302816;22;20003;-57
2021/08/02 05:52:28;;;;;;;2.60;1.52;;;;;;;;;;6302998;22;20010;-57
2021/08/02 05:54:54;;;;;;;2.45;1.48;;;;;;;;;;6302836;22;20037;-57
2021/08/02 05:57:23;;;;;;;1.98;1.15;;;;;;;;;;6302702;22;20429;-49
2021/08/02 05:59:48;;;;;;;2.28;1.35;;;;;;;;;;6302884;22;20111;-49
2021/08/02 06:02:13;;;;;;;2.13;1.33;;;;;;;;;;6302898;22;20429;-44
2021/08/02 06:04:39;;;;;;;2.55;1.83;;;;;;;;;;6302200;22;20435;-47
2021/08/02 06:07:04;;;;;;;2.70;1.98;;;;;;;;;;6302449;22;20025;-45
2021/08/02 06:09:30;;;;;;;7.65;5.50;;;;;;;;;;6302739;22;20057;-44
2021/08/02 06:11:55;;;;;;;3.50;3.05;;;;;;;;;;6302894;22;20699;-49
2021/08/02 06:14:20;;;;;;;3.95;2.88;;;;;;;;;;6302312;22;20609;-47
2021/08/02 06:16:45;;;;;;;4.28;2.97;;;;;;;;;;6302624;22;20007;-48
2021/08/02 06:19:11;;;;;;;6.47;3.53;;;;;;;;;;6302403;22;20082;-51
2021/08/02 06:21:36;;;;;;;5.85;4.68;;;;;;;;;;6302419;22;20391;-48
2021/08/02 06:24:02;;;;;;;14.77;6.20;;;;;;;;;;6302756;22;20052;-45
2021/08/02 06:26:27;;;;;;;9.23;5.40;;;;;;;;;;6301819;22;19999;-51
2021/08/02 06:28:52;;;;;;;8.43;5.28;;;;;;;;;;6302211;22;19995;-44
2021/08/02 06:31:19;;;;;;;17.48;8.77;;;;;;;;;;6302614;22;19996;-42
2021/08/02 06:33:45;;;;;;;19.50;7.45;;;;;;;;;;6302273;22;19995;-46
2021/08/02 06:36:10;;;;;;;9.85;6.65;;;;;;;;;;6302401;22;20007;-46
2021/08/02 06:38:36;;;;;;;8.20;6.28;;;;;;;;;;6302462;22;20005;-50
2021/08/02 06:41:01;;;;;;;14.27;6.97;;;;;;;;;;6301880;22;20714;-48
2021/08/02 06:43:27;;;;;;;12.60;8.52;;;;;;;;;;6302266;22;20038;-51
2021/08/02 06:45:52;;;;;;;19.90;8.65;;;;;;;;;;6302228;22;20325;-47
2021/08/02 06:48:17;;;;;;;13.60;9.07;;;;;;;;;;6302317;22;20082;-45
2021/08/02 06:50:43;;;;;;;19.90;9.40;;;;;;;;;;6302425;22;20424;-44
2021/08/02 06:53:08;;;;;;;13.48;8.98;;;;;;;;;;6301862;22;20356;-46
2021/08/02 06:55:33;;;;;;;13.07;9.40;;;;;;;;;;6302143;22;19992;-45
2021/08/02 06:57:59;;;;;;;13.20;10.05;;;;;;;;;;6302084;22;20003;-46
2021/08/02 07:00:24;;;;;;;13.57;11.30;;;;;;;;;;6302518;22;20003;-49
2021/08/02 07:02:49;;;;;;;13.10;9.50;;;;;;;;;;6301941;22;20006;-49
2021/08/02 07:05:15;;;;;;;18.92;7.57;;;;;;;;;;6302428;22;20482;-49
2021/08/02 07:07:40;;;;;;;11.35;9.00;;;;;;;;;;6302174;22;20428;-47
2021/08/02 07:10:06;;;;;;;10.85;9.15;;;;;;;;;;6301896;22;20635;-49
2021/08/02 07:12:31;;;;;;;14.82;9.07;;;;;;;;;;6301991;22;20040;-46
2021/08/02 07:14:57;;;;;;;16.92;8.98;;;;;;;;;;6301531;22;20423;-48
2021/08/02 07:17:22;;;;;;;8.23;7.10;;;;;;;;;;6302366;22;20034;-45
2021/08/02 07:19:47;;;;;;;9.07;7.40;;;;;;;;;;6301765;22;20015;-49
2021/08/02 07:22:13;;;;;;;17.85;11.93;;;;;;;;;;6301383;22;20406;-47
2021/08/02 07:24:38;;;;;;;19.10;8.82;;;;;;;;;;6302353;22;20022;-46
2021/08/02 07:27:03;;;;;;;8.75;6.40;;;;;;;;;;6301714;22;20053;-50
2021/08/02 07:29:29;;;;;;;15.07;8.25;;;;;;;;;;6301979;22;20055;-46
2021/08/02 07:31:54;;;;;;;19.08;11.90;;;;;;;;;;6301828;22;19995;-46
2021/08/02 07:34:19;;;;;;;14.20;8.05;;;;;;;;;;6301735;22;19996;-47
2021/08/02 07:36:45;;;;;;;16.35;12.25;;;;;;;;;;6301876;22;19995;-51
2021/08/02 07:39:11;;;;;;;10.70;9.63;;;;;;;;;;6302082;22;20011;-38
2021/08/02 07:41:37;;;;;;;17.83;9.15;;;;;;;;;;6301995;22;20498;-39
2021/08/02 07:44:03;;;;;;;17.80;13.57;;;;;;;;;;6301447;22;20007;-46
2021/08/02 07:46:28;;;;;;;10.55;9.02;;;;;;;;;;6301366;22;20049;-41
2021/08/02 07:48:53;;;;;;;41.53;35.25;;;;;;;;;;6301746;22;19992;-45
2021/08/02 07:51:19;;;;;;;43.00;26.92;;;;;;;;;;6302092;22;20030;-47
2021/08/02 07:53:44;;;;;;;22.13;15.85;;;;;;;;;;6302022;22;20060;-45
2021/08/02 07:56:10;;;;;;;19.45;14.40;;;;;;;;;;6301756;22;20490;-45
2021/08/02 07:58:35;;;;;;;25.38;18.77;;;;;;;;;;6301513;22;19999;-44
2021/08/02 08:01:00;;;;;;;16.00;10.30;;;;;;;;;;6302011;22;20002;-46
2021/08/02 08:03:26;;;;;;;14.18;10.35;;;;;;;;;;6302003;22;20618;-45
2021/08/02 08:05:51;;;;;;;19.08;10.18;;;;;;;;;;6301693;22;20070;-49
2021/08/02 08:08:17;;;;;;;11.88;8.40;;;;;;;;;;6301308;22;20003;-48
2021/08/02 08:10:42;;;;;;;10.68;8.25;;;;;;;;;;6301766;22;20029;-47
2021/08/02 08:13:07;;;;;;;13.45;9.63;;;;;;;;;;6301702;22;20476;-45
2021/08/02 08:15:33;;;;;;;13.45;8.20;;;;;;;;;;6302283;22;20439;-45
2021/08/02 08:17:58;;;;;;;15.20;7.88;;;;;;;;;;6301687;22;20082;-45
2021/08/02 08:20:24;;;;;;;14.52;6.53;;;;;;;;;;6301160;22;20011;-43
2021/08/02 08:22:50;;;;;;;6.78;5.47;;;;;;;;;;6301356;22;20006;-46
2021/08/02 08:25:15;;;;;;;7.60;6.07;;;;;;;;;;6301776;22;20010;-46
2021/08/02 08:27:41;;;;;;;12.38;5.57;;;;;;;;;;6301319;22;19999;-44
2021/08/02 08:30:07;;;;;;;6.85;6.15;;;;;;;;;;6300999;22;20003;-47
2021/08/02 08:32:33;;;;;;;8.90;5.28;;;;;;;;;;6301695;22;20082;-46
2021/08/02 08:34:58;;;;;;;9.80;5.13;;;;;;;;;;6303211;22;20034;-45
2021/08/02 08:37:23;;;;;;;8.98;4.82;;;;;;;;;;6303066;22;20057;-47
2021/08/02 08:39:49;;;;;;;9.75;4.28;;;;;;;;;;6302940;22;19995;-44
2021/08/02 08:42:14;;;;;;;10.35;4.47;;;;;;;;;;6303398;22;20006;-45
2021/08/02 08:44:40;;;;;;;3.95;2.92;;;;;;;;;;6303134;22;19995;-47
2021/08/02 08:47:05;;;;;;;6.47;3.33;;;;;;;;;;6303438;22;20007;-49
2021/08/02 08:49:31;;;;;;;4.95;3.20;;;;;;;;;;6303270;22;20352;-49
2021/08/02 08:51:56;;;;;;;8.95;3.25;;;;;;;;;;6303075;22;19991;-46
2021/08/02 08:54:22;;;;;;;9.13;2.40;;;;;;;;;;6303356;22;20003;-45
2021/08/02 08:56:47;;;;;;;6.28;2.67;;;;;;;;;;6303101;22;19999;-48
2021/08/02 08:59:13;;;;;;;3.60;2.63;;;;;;;;;;6303114;22;20003;-49
2021/08/02 09:01:39;;;;;;;2.90;2.22;;;;;;;;;;6303485;22;19995;-44
2021/08/02 09:04:05;;;;;;;3.72;2.00;;;;;;;;;;6303532;22;20000;-46
2021/08/02 09:06:31;;;;;;;3.55;2.42;;;;;;;;;;6303173;22;20064;-46
2021/08/02 09:08:56;;;;;;;4.22;2.55;;;;;;;;;;6302673;22;20724;-48
2021/08/02 09:11:25;;;;;;;5.07;2.33;;;;;;;;;;6302794;22;19995;-46
2021/08/02 09:13:51;;;;;;;2.80;1.75;;;;;;;;;;6302956;22;19991;-44
2021/08/02 09:16:21;;;;;;;2.47;1.35;;;;;;;;;;6302608;22;20013;-42
2021/08/02 09:19:12;;;;;;;3.95;1.65;;;;;;;;;;6302595;22;19999;-40
2021/08/02 09:21:41;;;;;;;5.55;1.42;;;;;;;;;;6302779;22;20019;-41
2021/08/02 09:24:06;;;;;;;2.95;1.80;;;;;;;;;;6302874;22;20029;-40
2021/08/02 09:26:33;;;;;;;3.03;1.67;;;;;;;;;;6302784;22;20571;-40
2021/08/02 09:28:58;;;;;;;4.13;2.10;;;;;;;;;;6302505;22;20090;-41
2021/08/02 09:31:33;;;;;;;8.73;2.17;;;;;;;;;;6302837;22;20034;-41
2021/08/02 09:34:03;;;;;;;7.15;1.90;;;;;;;;;;6302696;22;20025;-42
2021/08/02 09:36:42;;;;;;;1.93;1.30;;;;;;;;;;6302956;22;20083;-40
2021/08/02 09:39:13;;;;;;;2.03;1.52;;;;;;;;;;6302431;22;20085;-41
2021/08/02 09:41:39;;;;;;;5.78;1.58;;;;;;;;;;6302606;22;20054;-40
2021/08/02 09:44:05;;;;;;;4.45;1.23;;;;;;;;;;6302135;22;19995;-41
2021/08/02 09:46:30;;;;;;;2.67;1.58;;;;;;;;;;6302307;22;20456;-41
2021/08/02 09:49:04;;;;;;;1.80;1.23;;;;;;;;;;6302791;22;20041;-40
2021/08/02 09:51:40;;;;;;;30.08;2.60;;;;;;;;;;6302147;22;20038;-41
2021/08/02 09:54:05;;;;;;;14.63;1.38;;;;;;;;;;6302773;22;19995;-41
2021/08/02 09:56:30;;;;;;;2.67;1.60;;;;;;;;;;6302866;22;20025;-39
2021/08/02 09:58:56;;;;;;;2.10;1.13;;;;;;;;;;6302757;22;20014;-42
2021/08/02 10:01:21;;;;;;;3.63;1.58;;;;;;;;;;6302710;22;20293;-42
2021/08/02 10:03:47;;;;;;;2.63;1.27;;;;;;;;;;6302429;22;20006;-40
2021/08/02 10:06:13;;;;;;;4.78;2.95;;;;;;;;;;6302748;22;20003;-41
2021/08/02 10:08:38;;;;;;;5.60;1.70;;;;;;;;;;6300863;22;20060;-44
2021/08/02 10:11:04;;;;;;;2.33;1.25;;;;;;;;;;6302224;22;19996;-40
2021/08/02 10:13:31;;;;;;;2.05;1.08;;;;;;;;;;6302120;22;19999;-43
2021/08/02 10:15:58;;;;;;;1.13;0.85;;;;;;;;;;6302669;22;20003;-40
2021/08/02 10:18:25;;;;;;;2.00;1.25;;;;;;;;;;6301840;22;20028;-41
2021/08/02 10:21:01;;;;;;;16.42;1.70;;;;;;;;;;6301382;22;20023;-46
2021/08/02 10:23:26;;;;;;;1.77;1.13;;;;;;;;;;6302341;22;19999;-42
2021/08/02 10:25:51;;;;;;;2.45;1.88;;;;;;;;;;6302413;22;20443;-42
2021/08/02 10:28:18;;;;;;;3.40;2.78;;;;;;;;;;6301617;22;20107;-46
2021/08/02 10:30:45;;;;;;;2.50;1.10;;;;;;;;;;6300695;22;20192;-48
2021/08/02 10:33:10;;;;;;;2.58;1.35;;;;;;;;;;6298044;22;20486;-46
2021/08/02 10:35:54;;;;;;;2.60;1.48;;;;;;;;;;6297863;22;19995;-46
2021/08/02 10:38:19;;;;;;;8.48;1.40;;;;;;;;;;6298839;22;19995;-48
2021/08/02 10:40:50;;;;;;;3.95;1.35;;;;;;;;;;6299434;22;20002;-48
2021/08/02 10:43:29;;;;;;;3.33;1.90;;;;;;;;;;6299303;22;20003;-48
2021/08/02 10:45:56;;;;;;;3.83;1.75;;;;;;;;;;6300226;22;20432;-45
2021/08/02 10:48:25;;;;;;;2.28;1.33;;;;;;;;;;6301445;22;20006;-50
2021/08/02 10:50:51;;;;;;;4.70;2.05;;;;;;;;;;6301720;22;19999;-49
2021/08/02 10:53:19;;;;;;;1.85;0.85;;;;;;;;;;6302089;22;19998;-45
2021/08/02 10:55:46;;;;;;;2.90;1.63;;;;;;;;;;6302175;22;20015;-48
2021/08/02 10:58:11;;;;;;;2.42;1.20;;;;;;;;;;6302092;22;20029;-47
2021/08/02 11:00:37;;;;;;;3.50;1.58;;;;;;;;;;6301755;22;20429;-46
2021/08/02 11:03:03;;;;;;;4.47;1.67;;;;;;;;;;6302389;22;19995;-46
2021/08/02 11:05:30;;;;;;;5.78;1.75;;;;;;;;;;6302459;22;20027;-46
2021/08/02 11:08:00;;;;;;;1.50;0.90;;;;;;;;;;6301443;22;19999;-46
2021/08/02 11:10:26;;;;;;;8.18;2.45;;;;;;;;;;6302107;22;20064;-46
2021/08/02 11:12:51;;;;;;;6.22;1.52;;;;;;;;;;6302125;22;20462;-45
2021/08/02 11:15:16;;;;;;;4.25;1.33;;;;;;;;;;6302300;22;19999;-48
2021/08/02 11:17:52;;;;;;;2.60;1.42;;;;;;;;;;6301954;22;19999;-48
2021/08/02 11:20:17;;;;;;;3.75;1.67;;;;;;;;;;6301357;22;20023;-44
2021/08/02 11:22:49;;;;;;;4.30;1.42;;;;;;;;;;6299613;22;20056;-46
2021/08/02 11:25:20;;;;;;;6.20;1.55;;;;;;;;;;6301524;22;20007;-45
2021/08/02 11:27:52;;;;;;;4.10;1.73;;;;;;;;;;6302065;22;20350;-47
2021/08/02 11:30:18;;;;;;;4.78;1.17;;;;;;;;;;6301582;22;19996;-50
2021/08/02 11:32:43;;;;;;;3.42;1.52;;;;;;;;;;6301475;22;20073;-48
2021/08/02 11:35:09;;;;;;;3.08;1.00;;;;;;;;;;6301811;22;20071;-47
2021/08/02 11:37:34;;;;;;;3.03;1.35;;;;;;;;;;6302139;22;20327;-48
2021/08/02 11:40:00;;;;;;;2.55;1.35;;;;;;;;;;6302153;22;20428;-48
2021/08/02 11:42:28;;;;;;;1.08;0.77;;;;;;;;;;6302043;22;20425;-49
2021/08/02 11:44:56;;;;;;;3.97;1.40;;;;;;;;;;6301430;22;20049;-46
2021/08/02 11:47:25;;;;;;;6.95;1.67;;;;;;;;;;6301301;22;20030;-50
2021/08/02 11:49:51;;;;;;;2.40;1.15;;;;;;;;;;6301579;22;20456;-49
2021/08/02 11:52:17;;;;;;;2.03;1.05;;;;;;;;;;6301577;22;20006;-48
2021/08/02 11:54:44;;;;;;;0.88;0.63;;;;;;;;;;6302166;22;20003;-49
2021/08/02 11:57:17;;;;;;;2.88;1.05;;;;;;;;;;6301472;22;20005;-47
2021/08/02 11:59:52;;;;;;;3.03;1.45;;;;;;;;;;6301901;22;20007;-47
2021/08/02 12:02:17;;;;;;;0.30;0.22;;;;;;;;;;6301839;22;20506;-51
2021/08/02 12:04:43;;;;;;;1.85;0.95;;;;;;;;;;6301583;22;19999;-48
2021/08/02 12:07:08;;;;;;;1.95;0.80;;;;;;;;;;6301570;22;19999;-49
2021/08/02 12:09:33;;;;;;;1.55;0.75;;;;;;;;;;6303659;22;20000;-45
2021/08/02 12:11:59;;;;;;;2.13;1.08;;;;;;;;;;6303964;22;20002;-48
2021/08/02 12:14:25;;;;;;;1.67;0.85;;;;;;;;;;6303752;22;20003;-43
2021/08/02 12:17:04;;;;;;;2.10;1.17;;;;;;;;;;6303149;22;20023;-46
2021/08/02 12:19:29;;;;;;;1.73;0.70;;;;;;;;;;6303280;22;20015;-47
2021/08/02 12:21:56;;;;;;;4.43;1.02;;;;;;;;;;6303612;22;19995;-47
2021/08/02 12:24:21;;;;;;;11.43;0.93;;;;;;;;;;6303225;22;20010;-49
2021/08/02 12:26:49;;;;;;;2.00;0.98;;;;;;;;;;6317102;22;20668;-46
2021/08/02 12:29:25;;;;;;;3.60;1.13;;;;;;;;;;6299195;22;20583;-49
2021/08/02 12:31:54;;;;;;;4.05;1.90;;;;;;;;;;6300152;22;19999;-45
2021/08/02 12:34:21;;;;;;;6.65;1.58;;;;;;;;;;6299258;22;20026;-49
2021/08/02 12:36:46;;;;;;;2.75;1.27;;;;;;;;;;6300062;22;20066;-48
2021/08/02 12:39:11;;;;;;;4.50;2.05;;;;;;;;;;6300273;22;20092;-48
2021/08/02 12:41:37;;;;;;;3.28;0.95;;;;;;;;;;6299646;22;19995;-47
2021/08/02 12:44:03;;;;;;;1.83;0.85;;;;;;;;;;6299657;22;20003;-48
2021/08/02 12:46:28;;;;;;;1.23;0.95;;;;;;;;;;6297720;22;20011;-55
2021/08/02 12:48:54;;;;;;;2.13;1.20;;;;;;;;;;6299540;22;20026;-50
2021/08/02 12:51:19;;;;;;;1.85;0.93;;;;;;;;;;6299784;22;20176;-48
2021/08/02 12:53:45;;;;;;;1.73;0.85;;;;;;;;;;6300107;22;20483;-53
2021/08/02 12:56:10;;;;;;;3.00;1.40;;;;;;;;;;6299694;22;19999;-48
2021/08/02 12:58:36;;;;;;;1.05;0.80;;;;;;;;;;6300086;22;20005;-49
2021/08/02 13:01:01;;;;;;;9.68;5.28;;;;;;;;;;6299557;22;20003;-48
2021/08/02 13:03:26;;;;;;;7.65;1.98;;;;;;;;;;6299084;22;20429;-48
2021/08/02 13:05:52;;;;;;;1.95;1.10;;;;;;;;;;6299410;22;20003;-48
2021/08/02 13:08:17;;;;;;;1.90;0.80;;;;;;;;;;6299029;22;20000;-48
2021/08/02 13:10:42;;;;;;;1.75;0.98;;;;;;;;;;6299462;22;20025;-47
2021/08/02 13:13:08;;;;;;;1.48;0.35;;;;;;;;;;6300200;22;19995;-47
2021/08/02 13:15:33;;;;;;;1.77;0.85;;;;;;;;;;6299126;22;20028;-49
2021/08/02 13:17:59;;;;;;;5.10;1.02;;;;;;;;;;6298755;22;20022;-45
2021/08/02 13:20:24;;;;;;;1.38;0.80;;;;;;;;;;6298688;22;20092;-49
2021/08/02 13:23:04;;;;;;;8.02;1.23;;;;;;;;;;6299351;22;20015;-50
2021/08/02 13:28:14;;;;;;;3.95;0.60;;;;;;;;;;6299613;22;20057;-42
2021/08/02 13:30:40;;;;;;;1.05;0.75;;;;;;;;;;6299004;22;20003;-43
2021/08/02 13:33:05;;;;;;;1.38;0.68;;;;;;;;;;6299654;22;20080;-44
2021/08/02 13:35:30;;;;;;;4.93;2.10;;;;;;;;;;6299237;22;20002;-40
2021/08/02 13:37:56;;;;;;;2.33;1.40;;;;;;;;;;6298671;22;20070;-43
2021/08/02 13:40:21;;;;;;;2.40;1.17;;;;;;;;;;6299595;22;20003;-41
2021/08/02 13:42:48;;;;;;;3.63;1.08;;;;;;;;;;6299460;22;20490;-41
2021/08/02 13:45:14;;;;;;;1.75;1.17;;;;;;;;;;6299505;22;20003;-41
2021/08/02 13:47:39;;;;;;;5.00;2.58;;;;;;;;;;6298112;22;20543;-43
2021/08/02 13:50:05;;;;;;;4.72;1.88;;;;;;;;;;6298531;22;20083;-41
2021/08/02 13:52:30;;;;;;;3.53;1.23;;;;;;;;;;6298728;22;20471;-42
2021/08/02 13:54:55;;;;;;;1.15;0.82;;;;;;;;;;6298989;22;19991;-44
2021/08/02 13:57:21;;;;;;;3.92;1.48;;;;;;;;;;6298662;22;20116;-40
2021/08/02 13:59:46;;;;;;;1.55;0.55;;;;;;;;;;6299384;22;20009;-44
2021/08/02 14:02:11;;;;;;;1.60;0.90;;;;;;;;;;6299539;22;20007;-46
2021/08/02 14:04:37;;;;;;;1.95;1.25;;;;;;;;;;6298917;22;20111;-41
2021/08/02 14:07:02;;;;;;;2.65;1.23;;;;;;;;;;6298864;22;20444;-49
2021/08/02 14:09:28;;;;;;;1.20;0.95;;;;;;;;;;6297130;22;20010;-46
2021/08/02 14:11:59;;;;;;;2.58;1.08;;;;;;;;;;6299269;22;19999;-51
2021/08/02 14:14:28;;;;;;;2.65;1.02;;;;;;;;;;6299125;22;20428;-47
2021/08/02 14:16:55;;;;;;;2.38;1.33;;;;;;;;;;6299271;22;20007;-49
2021/08/02 14:19:24;;;;;;;1.23;0.82;;;;;;;;;;6298945;22;20356;-49
2021/08/02 14:21:49;;;;;;;1.77;1.13;;;;;;;;;;6298369;22;20003;-50
2021/08/02 14:24:14;;;;;;;3.08;1.38;;;;;;;;;;6298442;22;20009;-53
2021/08/02 14:26:40;;;;;;;2.33;1.17;;;;;;;;;;6299218;22;20010;-57
2021/08/02 14:29:06;;;;;;;5.25;1.60;;;;;;;;;;6298791;22;19991;-57
2021/08/02 14:31:31;;;;;;;3.03;1.40;;;;;;;;;;6298339;22;19999;-46
2021/08/02 14:33:57;;;;;;;1.17;0.52;;;;;;;;;;6298549;22;20052;-50
2021/08/02 14:36:22;;;;;;;5.65;2.25;;;;;;;;;;6298458;22;20021;-45
2021/08/02 14:38:53;;;;;;;2.13;1.10;;;;;;;;;;6297116;22;20487;-50
2021/08/02 14:41:26;;;;;;;5.88;0.70;;;;;;;;;;6298373;22;20086;-50